Time;durP1;ratioP1;P1;durP2;ratioP2;P2;SDS_P1;SDS_P2;PMS_P1;PMS_P2;Temp;Humidity;BMP_temperature;BMP_pressure;BME280_temperature;BME280_humidity;BME280_pressure;Samples;Min_cycle;Max_cycle;Signal;HPM_P1;HPM_P2
2022/06/23 00:01:53;;;;;;;8.93;3.92;;;;;;;20.13;47.90;101083.31;5056690;28;20025;-63
2022/06/23 00:04:26;;;;;;;9.52;4.60;;;;;;;19.99;49.21;101077.38;5056076;28;20045;-63
2022/06/23 00:07:01;;;;;;;12.07;4.32;;;;;;;19.89;49.59;101075.84;5056704;28;20482;-63
2022/06/23 00:09:43;;;;;;;9.15;4.45;;;;;;;19.85;49.33;101082.22;5056422;28;20112;-63
2022/06/23 00:12:34;;;;;;;8.95;4.20;;;;;;;19.86;49.84;101075.91;5056316;28;20024;-64
2022/06/23 00:14:59;;;;;;;9.13;4.32;;;;;;;19.82;50.97;101069.75;5056375;28;20029;-63
2022/06/23 00:17:27;;;;;;;8.35;4.55;;;;;;;19.85;50.63;101072.38;5056236;28;20013;-63
2022/06/23 00:19:54;;;;;;;10.80;4.60;;;;;;;19.78;51.38;101078.78;5056298;28;20029;-63
2022/06/23 00:22:23;;;;;;;8.27;4.32;;;;;;;19.78;51.45;101068.06;5055980;28;20021;-63
2022/06/23 00:24:52;;;;;;;11.88;4.75;;;;;;;19.73;52.20;101070.84;5056065;28;20029;-63
2022/06/23 00:27:21;;;;;;;11.18;4.72;;;;;;;19.67;52.58;101060.28;5056146;28;20044;-63
2022/06/23 00:29:48;;;;;;;8.18;5.07;;;;;;;19.60;53.33;101069.34;5055810;28;20045;-63
2022/06/23 00:32:15;;;;;;;15.02;5.40;;;;;;;19.47;53.40;101065.19;5055874;28;20044;-63
2022/06/23 00:35:03;;;;;;;8.60;4.75;;;;;;;19.51;53.65;101066.88;5054484;28;20079;-63
2022/06/23 00:37:29;;;;;;;14.38;5.63;;;;;;;19.71;53.34;101069.13;5055729;28;20028;-63
2022/06/23 00:39:59;;;;;;;12.35;5.00;;;;;;;19.68;53.32;101080.81;5055790;28;20041;-63
2022/06/23 00:42:34;;;;;;;9.20;5.47;;;;;;;19.70;54.02;101089.72;5056055;28;20057;-63
2022/06/23 00:45:02;;;;;;;9.32;5.13;;;;;;;19.61;55.04;101073.81;5055784;28;20035;-63
2022/06/23 00:47:48;;;;;;;10.18;5.60;;;;;;;19.56;54.18;101070.31;5055471;28;20036;-64
2022/06/23 00:50:29;;;;;;;12.80;5.53;;;;;;;19.54;54.71;101073.97;5055884;28;20111;-63
2022/06/23 00:52:58;;;;;;;11.52;5.47;;;;;;;19.48;55.50;101077.66;5055725;28;20068;-63
2022/06/23 00:55:46;;;;;;;10.23;5.20;;;;;;;19.57;54.74;101074.78;5055584;28;20028;-63
2022/06/23 00:58:24;;;;;;;9.43;5.15;;;;;;;19.65;54.97;101061.22;5055498;28;20021;-63
2022/06/23 01:00:53;;;;;;;9.77;5.40;;;;;;;19.49;55.67;101052.63;5055441;28;20059;-63
2022/06/23 01:03:27;;;;;;;11.95;5.82;;;;;;;19.44;56.07;101054.50;5055427;28;20467;-62
2022/06/23 01:06:12;;;;;;;11.10;5.88;;;;;;;19.39;55.68;101057.28;5055491;28;20119;-62
2022/06/23 01:09:00;;;;;;;11.23;5.90;;;;;;;19.37;55.85;101055.59;5055243;28;20359;-63
2022/06/23 01:11:47;;;;;;;12.55;5.80;;;;;;;19.29;56.59;101055.75;5055046;28;20036;-63
2022/06/23 01:14:50;;;;;;;11.93;5.57;;;;;;;19.26;57.27;101051.31;5055324;28;20116;-62
2022/06/23 01:17:28;;;;;;;9.60;5.50;;;;;;;19.16;57.70;101049.78;5055618;28;20025;-62
2022/06/23 01:20:16;;;;;;;12.57;5.68;;;;;;;19.11;57.86;101042.75;5055079;28;20017;-63
2022/06/23 01:22:54;;;;;;;14.15;6.10;;;;;;;19.00;58.94;101048.31;5055054;28;20025;-63
2022/06/23 01:25:38;;;;;;;10.25;5.78;;;;;;;19.00;58.04;101054.56;5054871;28;20503;-62
2022/06/23 01:28:15;;;;;;;12.60;6.15;;;;;;;18.99;59.25;101057.28;5054748;28;20043;-63
2022/06/23 01:30:56;;;;;;;19.42;6.78;;;;;;;18.99;59.60;101050.13;5054918;28;20055;-62
2022/06/23 01:33:28;;;;;;;12.23;6.10;;;;;;;19.04;59.87;101051.84;5054893;28;20230;-63
2022/06/23 01:36:00;;;;;;;;;;;;;;;19.20;56.57;101045.25;5055145;28;20052;-63
2022/06/23 01:38:48;;;;;;;14.77;6.50;;;;;;;19.07;59.01;101052.66;5054621;28;19919;-63
2022/06/23 01:41:57;;;;;;;11.80;6.53;;;;;;;19.02;59.44;101044.72;5054823;28;20032;-63
2022/06/23 01:44:45;;;;;;;13.35;6.30;;;;;;;19.04;59.32;101059.88;5054342;28;20072;-63
2022/06/23 01:47:29;;;;;;;9.05;6.07;;;;;;;19.04;59.72;101059.88;5054188;28;20041;-63
2022/06/23 01:50:08;;;;;;;13.18;6.65;;;;;;;18.93;60.70;101054.75;5054392;28;20044;-62
2022/06/23 01:52:34;;;;;;;12.95;6.60;;;;;;;18.88;61.16;101052.13;5054966;28;20036;-63
2022/06/23 01:55:11;;;;;;;13.85;6.45;;;;;;;18.83;61.54;101048.66;5054429;28;20029;-63
2022/06/23 01:57:50;;;;;;;15.95;6.60;;;;;;;18.90;60.66;101050.31;5054541;28;20044;-62
2022/06/23 02:00:25;;;;;;;10.93;6.57;;;;;;;18.95;60.91;101050.22;5054475;28;20112;-63
2022/06/23 02:03:20;;;;;;;10.77;6.57;;;;;;;19.05;59.47;101051.78;5054375;28;20029;-63
2022/06/23 02:05:51;;;;;;;12.32;6.78;;;;;;;19.03;60.42;101045.59;5054149;28;20033;-63
2022/06/23 02:08:37;;;;;;;14.90;6.78;;;;;;;19.03;59.33;101048.28;5054100;28;20029;-63
2022/06/23 02:11:25;;;;;;;12.90;6.50;;;;;;;19.05;59.59;101049.09;5053951;28;20036;-63
2022/06/23 02:14:15;;;;;;;16.35;7.40;;;;;;;19.01;60.23;101047.41;5052832;28;20033;-63
2022/06/23 02:16:57;;;;;;;12.38;6.60;;;;;;;18.94;60.30;101049.34;5053911;28;20036;-62
2022/06/23 02:19:40;;;;;;;;;;;;;;;19.08;57.88;101040.13;5054330;28;20036;-63
2022/06/23 02:22:40;;;;;;;13.10;6.85;;;;;;;18.96;59.38;101044.81;5054088;28;19913;-63
2022/06/23 02:25:33;;;;;;;10.75;6.47;;;;;;;18.90;59.95;101030.69;5045993;28;20041;-63
2022/06/23 02:28:18;;;;;;;12.82;7.00;;;;;;;18.87;60.25;101036.09;5053956;28;20521;-63
2022/06/23 02:30:59;;;;;;;12.45;6.70;;;;;;;18.84;60.64;101042.41;5054060;28;20043;-63
2022/06/23 02:33:31;;;;;;;14.52;6.68;;;;;;;18.77;61.76;101032.75;5053924;28;20104;-62
2022/06/23 02:36:15;;;;;;;11.77;6.90;;;;;;;18.73;61.41;101037.28;5053614;28;20438;-63
2022/06/23 02:38:57;;;;;;;12.55;7.05;;;;;;;18.54;62.20;101035.81;5053429;28;20102;-62
2022/06/23 02:41:30;;;;;;;12.88;7.25;;;;;;;18.51;62.20;101034.09;5053578;28;20032;-63
2022/06/23 02:44:18;;;;;;;11.95;7.03;;;;;;;18.49;61.62;101032.34;5053511;28;20554;-62
2022/06/23 02:46:52;;;;;;;13.95;7.40;;;;;;;18.42;62.28;101039.63;5032984;28;20044;-62
2022/06/23 02:49:27;;;;;;;12.45;6.68;;;;;;;18.40;62.49;101046.78;5052204;28;20082;-62
2022/06/23 02:52:11;;;;;;;10.70;6.82;;;;;;;18.46;61.91;101049.38;5053675;28;20387;-62
2022/06/23 02:55:02;;;;;;;12.30;6.70;;;;;;;18.43;61.97;101045.84;5053427;28;20509;-63
2022/06/23 02:57:51;;;;;;;12.70;7.05;;;;;;;18.46;61.71;101035.97;5053553;28;20035;-62
2022/06/23 03:00:39;;;;;;;14.68;7.63;;;;;;;18.46;62.01;101037.78;5052469;28;20080;-62
2022/06/23 03:03:19;;;;;;;17.17;7.10;;;;;;;18.44;61.97;101031.56;5053056;28;20021;-63
2022/06/23 03:05:58;;;;;;;14.02;6.38;;;;;;;18.38;62.14;101019.19;5053572;28;20056;-62
2022/06/23 03:08:32;;;;;;;16.40;7.53;;;;;;;18.33;61.97;101022.84;5053241;28;20021;-63
2022/06/23 03:11:04;;;;;;;10.85;7.20;;;;;;;18.29;62.40;101024.72;5053462;28;20032;-62
2022/06/23 03:13:42;;;;;;;13.93;7.45;;;;;;;18.32;62.01;101027.31;5053179;28;20035;-63
2022/06/23 03:16:45;;;;;;;11.55;7.25;;;;;;;18.35;60.74;101016.56;5053147;28;20380;-62
2022/06/23 03:19:17;;;;;;;13.82;7.20;;;;;;;18.35;61.73;101010.34;5011749;28;20049;-63
2022/06/23 03:21:46;;;;;;;14.00;7.23;;;;;;;18.31;61.78;101017.53;5046671;28;20041;-63
2022/06/23 03:24:22;;;;;;;11.75;7.15;;;;;;;18.32;61.74;101007.69;5053227;28;20052;-62
2022/06/23 03:26:55;;;;;;;12.52;7.53;;;;;;;18.31;60.98;101005.94;5051753;28;20028;-63
2022/06/23 03:29:28;;;;;;;13.07;7.18;;;;;;;18.30;61.12;101014.88;5052749;28;20045;-63
2022/06/23 03:32:17;;;;;;;14.18;7.30;;;;;;;18.27;61.26;101016.69;5053016;28;20108;-63
2022/06/23 03:35:17;;;;;;;15.07;7.60;;;;;;;18.25;60.63;101015.84;5053861;28;20091;-63
2022/06/23 03:37:59;;;;;;;14.70;7.40;;;;;;;18.25;61.00;101014.97;5052976;28;20474;-63
2022/06/23 03:43:31;;;;;;;11.77;7.13;;;;;;;18.14;60.97;101012.47;5053026;28;20035;-63
2022/06/23 03:45:59;;;;;;;13.25;7.13;;;;;;;18.13;61.22;101015.19;5051527;28;20397;-63
2022/06/23 03:48:28;;;;;;;13.57;6.95;;;;;;;18.15;60.91;101019.59;5052852;28;20123;-63
2022/06/23 03:51:03;;;;;;;9.68;6.53;;;;;;;18.21;61.19;101024.84;5052578;28;20045;-63
2022/06/23 03:53:37;;;;;;;10.50;6.93;;;;;;;18.22;61.13;101020.38;5052775;28;20029;-63
2022/06/23 03:56:15;;;;;;;13.50;7.13;;;;;;;18.32;60.33;101021.06;5052898;28;20111;-63
2022/06/23 03:58:52;;;;;;;11.63;6.78;;;;;;;18.22;61.08;101029.28;5052877;28;20441;-63
2022/06/23 04:01:29;;;;;;;10.10;7.13;;;;;;;18.27;60.13;101024.72;5052546;28;20037;-64
2022/06/23 04:04:17;;;;;;;12.30;6.90;;;;;;;18.31;59.52;101028.22;5052928;28;20030;-63
2022/06/23 04:06:48;;;;;;;12.13;6.90;;;;;;;18.31;60.03;101027.34;5052762;28;20079;-62
2022/06/23 04:09:27;;;;;;;12.38;6.80;;;;;;;18.37;59.39;101033.47;5052673;28;20063;-63
2022/06/23 04:12:05;;;;;;;11.63;6.53;;;;;;;18.30;59.91;101025.59;5055304;28;20112;-62
2022/06/23 04:14:30;;;;;;;9.35;6.43;;;;;;;18.39;59.59;101022.75;5056519;28;20087;-63
2022/06/23 04:17:07;;;;;;;13.43;6.70;;;;;;;18.38;59.20;101029.88;5056511;28;20425;-62
2022/06/23 04:19:34;;;;;;;12.77;6.78;;;;;;;18.37;59.65;101024.53;5056205;28;20100;-63
2022/06/23 04:22:57;;;;;;;14.73;6.90;;;;;;;18.40;58.92;101027.19;5056353;28;20040;-63
2022/06/23 04:25:34;;;;;;;15.35;6.70;;;;;;;18.42;59.09;101025.38;5014643;28;20038;-62
2022/06/23 04:28:01;;;;;;;12.77;6.63;;;;;;;18.42;58.90;101018.22;5056002;28;20056;-63
2022/06/23 04:30:32;;;;;;;11.45;7.03;;;;;;;18.46;58.84;101014.56;5055875;28;20103;-63
2022/06/23 04:33:00;;;;;;;11.40;6.50;;;;;;;18.47;58.63;101012.78;5056171;28;20040;-63
2022/06/23 04:35:31;;;;;;;9.93;6.35;;;;;;;18.50;59.21;101018.09;5055999;28;20104;-63
2022/06/23 04:38:00;;;;;;;14.57;7.25;;;;;;;18.49;58.89;101006.47;5055830;28;20078;-62
2022/06/23 04:40:38;;;;;;;11.20;6.95;;;;;;;18.41;59.01;101019.09;5055873;28;20029;-63
2022/06/23 04:43:12;;;;;;;12.68;6.93;;;;;;;18.52;58.61;101013.56;5056280;28;20021;-63
2022/06/23 04:45:47;;;;;;;12.40;6.47;;;;;;;18.57;58.75;101026.84;5055693;28;20103;-62
2022/06/23 04:48:24;;;;;;;11.48;6.88;;;;;;;18.43;59.53;101035.16;5055929;28;20467;-62
2022/06/23 04:50:58;;;;;;;16.95;6.78;;;;;;;18.42;58.92;101026.25;5055798;28;20025;-62
2022/06/23 04:53:45;;;;;;;13.10;6.90;;;;;;;18.49;58.39;101021.66;5055687;28;20021;-63
2022/06/23 04:56:17;;;;;;;9.27;6.60;;;;;;;18.52;58.14;101026.94;5055883;28;20479;-63
2022/06/23 04:58:56;;;;;;;13.88;6.70;;;;;;;18.65;57.78;101020.44;5055402;28;20430;-63
2022/06/23 05:01:33;;;;;;;9.98;6.30;;;;;;;18.70;57.23;101023.06;5055728;28;20021;-63
2022/06/23 05:04:00;;;;;;;8.73;6.00;;;;;;;18.78;57.86;101021.09;5055352;28;20053;-62
2022/06/23 05:06:38;;;;;;;12.02;6.63;;;;;;;18.80;57.12;101029.09;5055232;28;20140;-63
2022/06/23 05:09:13;;;;;;;11.38;6.70;;;;;;;18.89;56.86;101021.78;5054082;28;20025;-63
2022/06/23 05:11:45;;;;;;;10.68;6.50;;;;;;;18.98;57.02;101013.56;5055264;28;20483;-63
2022/06/23 05:14:21;;;;;;;15.32;6.53;;;;;;;19.06;57.08;101018.75;5055148;28;20382;-63
2022/06/23 05:16:51;;;;;;;9.70;6.28;;;;;;;19.15;56.30;101021.22;5055218;28;20028;-62
2022/06/23 05:19:25;;;;;;;11.52;6.15;;;;;;;19.21;56.00;101020.19;5055175;28;20021;-63
2022/06/23 05:21:59;;;;;;;10.43;6.13;;;;;;;19.37;54.91;101028.78;5054654;28;20052;-62
2022/06/23 05:24:36;;;;;;;11.48;6.03;;;;;;;19.46;54.73;101039.28;5054978;28;20429;-62
2022/06/23 05:27:18;;;;;;;12.68;6.50;;;;;;;19.57;54.72;101039.94;5055708;28;20083;-63
2022/06/23 05:30:25;;;;;;;8.20;5.93;;;;;;;19.70;53.65;101032.53;5054652;28;20049;-63
2022/06/23 05:32:55;;;;;;;8.77;5.63;;;;;;;19.73;53.55;101025.25;5034603;28;20041;-63
2022/06/23 05:35:45;;;;;;;9.52;5.65;;;;;;;19.84;53.96;101024.13;5054977;28;20029;-62
2022/06/23 05:38:23;;;;;;;9.95;6.15;;;;;;;19.89;52.97;101016.84;5054792;28;20024;-62
2022/06/23 05:40:53;;;;;;;8.27;5.90;;;;;;;20.04;52.71;101013.75;5054718;28;20044;-63
2022/06/23 05:43:19;;;;;;;13.32;6.10;;;;;;;20.18;52.88;101011.63;5054572;28;20025;-62
2022/06/23 05:45:56;;;;;;;10.13;5.93;;;;;;;20.39;52.14;101017.34;5054558;28;20051;-62
2022/06/23 05:48:31;;;;;;;8.63;5.93;;;;;;;20.47;52.18;101015.31;5054511;28;20016;-62
2022/06/23 05:51:01;;;;;;;13.13;5.70;;;;;;;20.64;51.57;101015.78;5054591;28;20470;-62
2022/06/23 05:53:29;;;;;;;8.07;5.25;;;;;;;20.83;50.77;101017.94;5054651;28;20052;-62
2022/06/23 05:56:20;;;;;;;10.75;5.65;;;;;;;21.05;51.14;101019.06;5054169;28;20025;-63
2022/06/23 05:58:55;;;;;;;11.07;5.60;;;;;;;21.21;50.61;101022.19;5054472;28;20037;-63
2022/06/23 06:01:24;;;;;;;10.30;5.50;;;;;;;21.28;49.97;101023.72;5054217;28;20061;-62
2022/06/23 06:04:31;;;;;;;10.93;5.70;;;;;;;21.49;50.36;101022.22;5054255;28;20036;-63
2022/06/23 06:06:58;;;;;;;8.73;5.68;;;;;;;21.65;49.55;101025.31;5045252;28;20128;-63
2022/06/23 06:09:36;;;;;;;9.05;5.97;;;;;;;21.77;49.33;101029.41;5054316;28;20029;-63
2022/06/23 06:12:25;;;;;;;9.82;5.50;;;;;;;21.80;49.70;101029.28;5054153;28;20021;-64
2022/06/23 06:14:59;;;;;;;9.25;5.57;;;;;;;22.02;49.36;101032.19;5054080;28;20053;-63
2022/06/23 06:17:28;;;;;;;9.75;6.15;;;;;;;22.11;47.67;101019.28;5054020;28;20032;-63
2022/06/23 06:19:56;;;;;;;12.55;6.35;;;;;;;22.12;48.46;101020.16;5054015;28;20053;-63
2022/06/23 06:22:40;;;;;;;10.82;5.72;;;;;;;22.35;47.85;101014.00;5052486;28;20100;-63
2022/06/23 06:25:14;;;;;;;9.15;6.20;;;;;;;22.56;46.99;101023.13;5053757;28;20060;-63
2022/06/23 06:27:39;;;;;;;8.30;5.68;;;;;;;22.64;46.45;101016.53;5054310;28;20032;-63
2022/06/23 06:30:05;;;;;;;15.00;6.30;;;;;;;22.77;46.61;101018.78;5053472;28;20056;-63
2022/06/23 06:32:35;;;;;;;12.52;6.13;;;;;;;22.94;47.04;101006.44;5053911;28;20028;-62
2022/06/23 06:35:18;;;;;;;12.93;6.00;;;;;;;23.14;47.26;101011.09;5053315;28;20021;-62
2022/06/23 06:37:49;;;;;;;11.18;6.32;;;;;;;23.35;45.72;101020.16;5053493;28;20064;-63
2022/06/23 06:40:16;;;;;;;10.60;6.13;;;;;;;23.48;45.61;101016.03;5053833;28;20032;-63
2022/06/23 06:42:47;;;;;;;9.75;6.15;;;;;;;23.57;46.46;101030.97;5053788;28;20091;-62
2022/06/23 06:45:17;;;;;;;9.75;6.55;;;;;;;23.51;46.03;101025.84;5053682;28;20025;-63
2022/06/23 06:47:44;;;;;;;10.65;6.50;;;;;;;23.64;45.67;101024.41;5053516;28;20024;-62
2022/06/23 06:50:18;;;;;;;11.82;6.22;;;;;;;23.81;45.80;101022.84;5053387;28;20518;-62
2022/06/23 06:52:45;;;;;;;13.27;6.57;;;;;;;24.01;44.84;101019.31;5053500;28;20497;-62
2022/06/23 06:55:37;;;;;;;11.13;6.78;;;;;;;24.34;44.95;101020.56;5053312;28;20478;-62
2022/06/23 06:58:31;;;;;;;12.73;6.22;;;;;;;24.61;44.73;101015.78;5048941;28;20072;-63
2022/06/23 07:01:14;;;;;;;14.05;6.63;;;;;;;24.81;43.61;101016.72;5053379;28;20029;-62
2022/06/23 07:03:44;;;;;;;10.35;6.20;;;;;;;25.04;43.53;101011.13;5053389;28;20060;-63
2022/06/23 07:06:23;;;;;;;13.27;6.35;;;;;;;25.20;43.99;101023.00;5053470;28;20029;-63
2022/06/23 07:09:07;;;;;;;10.60;6.50;;;;;;;25.44;43.34;101017.38;5053280;28;20032;-63
2022/06/23 07:11:41;;;;;;;12.75;6.55;;;;;;;25.58;43.32;101025.69;5053165;28;20158;-62
2022/06/23 07:14:21;;;;;;;12.15;6.63;;;;;;;25.65;42.37;101019.03;5053328;28;20029;-63
2022/06/23 07:16:59;;;;;;;14.20;6.95;;;;;;;25.67;42.64;101032.50;5053045;28;20025;-63
2022/06/23 07:19:39;;;;;;;12.05;6.68;;;;;;;25.66;42.57;101025.34;5052915;28;20470;-63
2022/06/23 07:22:29;;;;;;;17.08;7.63;;;;;;;25.79;43.45;101031.94;5053389;28;20048;-63
2022/06/23 07:25:04;;;;;;;13.32;6.65;;;;;;;25.94;42.61;101032.97;5053351;28;20033;-63
2022/06/23 07:27:42;;;;;;;13.63;6.68;;;;;;;26.13;42.53;101027.53;5052972;28;20025;-63
2022/06/23 07:30:13;;;;;;;11.82;6.60;;;;;;;26.23;42.22;101026.09;5052754;28;20482;-62
2022/06/23 07:32:50;;;;;;;11.35;6.25;;;;;;;26.40;42.19;101020.66;5053197;28;20036;-63
2022/06/23 07:35:39;;;;;;;11.75;6.88;;;;;;;26.41;41.91;101013.41;5053202;28;20061;-63
2022/06/23 07:38:10;;;;;;;11.35;6.60;;;;;;;26.62;42.49;101011.44;5053086;28;20119;-63
2022/06/23 07:41:11;;;;;;;10.10;6.90;;;;;;;26.94;42.24;101006.97;5053015;28;20076;-63
2022/06/23 07:44:02;;;;;;;15.93;7.00;;;;;;;27.08;42.67;101011.63;5040021;28;20044;-63
2022/06/23 07:46:29;;;;;;;17.25;7.07;;;;;;;27.11;41.36;101015.09;5053884;28;20376;-63
2022/06/23 07:48:55;;;;;;;12.48;6.88;;;;;;;27.16;41.75;101006.69;5056943;28;20025;-63
2022/06/23 07:51:22;;;;;;;12.57;6.72;;;;;;;27.50;41.54;101008.38;5056573;28;20013;-63
2022/06/23 07:53:51;;;;;;;10.68;6.40;;;;;;;27.83;40.22;101015.53;5056954;28;20125;-63
2022/06/23 07:56:21;;;;;;;13.88;6.88;;;;;;;27.89;40.55;101009.78;5056767;28;20017;-63
2022/06/23 07:58:54;;;;;;;11.48;7.38;;;;;;;28.06;39.81;101011.50;5056450;28;20471;-63
2022/06/23 08:01:30;;;;;;;13.88;7.30;;;;;;;28.07;39.54;101013.22;5056671;28;20036;-63
2022/06/23 08:04:10;;;;;;;11.30;7.03;;;;;;;28.08;40.03;101015.84;5056501;28;20021;-63
2022/06/23 08:06:37;;;;;;;10.88;6.75;;;;;;;28.27;40.36;101010.19;5056377;28;20422;-63
2022/06/23 08:09:29;;;;;;;15.32;6.55;;;;;;;28.63;40.51;101015.25;5056471;28;20060;-63
2022/06/23 08:16:49;;;;;;;12.05;6.70;;;;;;;29.05;40.20;101004.50;5056593;28;20040;-63
2022/06/23 08:17:40;;;;;;;13.45;7.32;;;;;;;29.13;38.74;100997.59;5056096;28;20029;-64
2022/06/23 08:20:08;;;;;;;16.05;7.07;;;;;;;29.03;39.12;101007.31;5056259;28;20037;-63
2022/06/23 08:22:37;;;;;;;13.13;6.28;;;;;;;29.24;40.46;101004.19;5056226;28;20087;-63
2022/06/23 08:25:06;;;;;;;13.23;6.80;;;;;;;29.41;38.83;101006.69;5056076;28;20028;-63
2022/06/23 08:27:33;;;;;;;12.65;6.63;;;;;;;29.79;38.35;101001.44;5056337;28;20029;-63
2022/06/23 08:30:07;;;;;;;11.55;5.85;;;;;;;29.69;38.40;101000.34;5055794;28;20057;-63
2022/06/23 08:32:34;;;;;;;13.57;6.78;;;;;;;29.60;38.79;100995.50;5056025;28;20040;-63
2022/06/23 08:35:05;;;;;;;14.88;5.93;;;;;;;29.79;38.69;100987.84;5055757;28;20062;-63
2022/06/23 08:37:49;;;;;;;13.68;5.68;;;;;;;30.14;39.29;100998.19;5056190;28;20079;-63
2022/06/23 08:40:31;;;;;;;13.45;5.43;;;;;;;30.31;38.67;100997.91;5055951;28;20033;-63
2022/06/23 08:43:09;;;;;;;;;;;;;;;30.70;38.44;100990.63;5056087;28;20032;-63
2022/06/23 08:45:37;;;;;;;13.13;6.05;;;;;;;30.46;37.87;100998.72;5055657;28;19920;-63
2022/06/23 08:48:02;;;;;;;10.50;6.15;;;;;;;30.75;36.89;100998.50;5056000;28;20029;-63
2022/06/23 08:50:37;;;;;;;12.00;6.15;;;;;;;30.90;37.34;100994.69;5055684;28;20071;-63
2022/06/23 08:53:37;;;;;;;12.30;5.90;;;;;;;31.12;37.54;101000.34;5055793;28;20021;-63
2022/06/23 08:56:24;;;;;;;11.88;5.78;;;;;;;31.36;36.50;100988.66;5055971;28;20044;-63
2022/06/23 08:58:54;;;;;;;14.50;5.88;;;;;;;31.45;36.30;100995.28;5054422;28;20021;-63
2022/06/23 09:01:56;;;;;;;10.95;5.53;;;;;;;31.74;37.25;100987.63;5055387;28;20021;-64
2022/06/23 09:04:22;;;;;;;13.27;6.20;;;;;;;31.56;35.67;100993.50;5042514;28;20041;-64
2022/06/23 09:07:05;;;;;;;13.25;5.88;;;;;;;31.42;35.82;100990.91;5055280;28;20044;-63
2022/06/23 09:10:10;;;;;;;13.13;5.18;;;;;;;31.12;37.38;100988.53;5055201;28;20037;-65
2022/06/23 09:12:55;;;;;;;10.63;4.80;;;;;;;30.67;37.50;100988.13;5045964;28;20033;-63
2022/06/23 09:15:42;;;;;;;15.07;4.68;;;;;;;30.74;37.74;100972.22;5055143;28;20037;-63
2022/06/23 09:18:23;;;;;;;12.00;4.78;;;;;;;30.76;37.21;100976.59;5055114;28;20029;-63
2022/06/23 09:21:17;;;;;;;12.98;4.40;;;;;;;30.96;37.98;100972.41;5055142;28;20028;-63
2022/06/23 09:24:04;;;;;;;9.75;4.00;;;;;;;30.86;37.88;100977.66;5039094;28;20502;-63
2022/06/23 09:26:32;;;;;;;10.68;3.97;;;;;;;30.85;37.80;100978.66;5054886;28;20041;-63
2022/06/23 09:29:18;;;;;;;12.55;4.00;;;;;;;30.93;37.51;100970.78;5054597;28;20061;-62
2022/06/23 09:32:11;;;;;;;11.20;4.20;;;;;;;31.38;37.30;100968.41;5054818;28;20359;-63
2022/06/23 09:34:57;;;;;;;9.80;3.80;;;;;;;31.30;37.54;100964.50;5054918;28;20078;-63
2022/06/23 09:37:39;;;;;;;10.73;4.03;;;;;;;31.50;38.24;100960.28;5054662;28;20036;-63
2022/06/23 09:40:29;;;;;;;9.68;3.95;;;;;;;31.80;37.66;100962.56;5054587;28;20040;-63
2022/06/23 09:43:19;;;;;;;12.48;4.03;;;;;;;32.12;36.00;100963.72;5054788;28;20098;-62
2022/06/23 09:46:03;;;;;;;13.38;3.97;;;;;;;32.09;36.67;100957.59;5054833;28;20095;-63
2022/06/23 09:48:36;;;;;;;10.00;3.80;;;;;;;32.04;35.67;100963.44;5054495;28;20037;-62
2022/06/23 09:51:34;;;;;;;9.85;3.50;;;;;;;31.73;36.23;100956.66;5054551;28;20112;-63
2022/06/23 09:54:15;;;;;;;11.50;3.65;;;;;;;32.11;35.50;100952.88;5054395;28;20025;-63
2022/06/23 09:57:01;;;;;;;10.95;3.33;;;;;;;31.98;35.98;100963.91;5054552;28;20063;-63
2022/06/23 09:59:32;;;;;;;12.38;3.72;;;;;;;31.83;36.27;100952.28;5054278;28;20028;-63
2022/06/23 10:02:22;;;;;;;10.45;4.43;;;;;;;31.79;37.25;100948.03;5054376;28;20091;-63
2022/06/23 10:05:21;;;;;;;14.45;4.05;;;;;;;31.82;37.45;100953.25;5054558;28;20067;-63
2022/06/23 10:08:14;;;;;;;10.35;4.00;;;;;;;32.16;37.30;100956.13;5054162;28;20561;-64
2022/06/23 10:10:54;;;;;;;15.05;4.20;;;;;;;32.19;36.55;100949.56;5053931;28;21319;-63
2022/06/23 10:13:35;;;;;;;12.40;3.83;;;;;;;32.45;36.65;100945.66;5052788;28;20454;-63
2022/06/23 10:16:39;;;;;;;18.30;4.60;;;;;;;32.69;36.46;100959.25;5054075;28;20036;-63
2022/06/23 10:19:19;;;;;;;10.77;4.20;;;;;;;32.42;37.54;100954.13;5054035;28;20029;-63
2022/06/23 10:22:29;;;;;;;12.52;4.20;;;;;;;32.58;37.14;100954.63;5054043;28;20029;-63
2022/06/23 10:25:16;;;;;;;12.05;4.60;;;;;;;32.55;36.87;100951.25;5030681;28;20037;-63
2022/06/23 10:27:54;;;;;;;12.10;4.30;;;;;;;32.59;37.55;100956.38;5054023;28;20029;-63
2022/06/23 10:30:37;;;;;;;15.35;4.97;;;;;;;32.66;36.52;100954.88;5053738;28;20115;-63
2022/06/23 10:34:01;;;;;;;13.68;4.40;;;;;;;33.31;35.93;100945.03;5054186;28;20029;-63
2022/06/23 10:36:32;;;;;;;15.77;4.40;;;;;;;33.15;35.50;100942.72;5036176;28;20083;-64
2022/06/23 10:39:09;;;;;;;12.68;4.40;;;;;;;33.29;35.34;100932.47;5053721;28;20029;-64
2022/06/23 10:42:01;;;;;;;18.95;4.60;;;;;;;33.70;35.85;100934.47;5053564;28;20064;-63
2022/06/23 10:44:37;;;;;;;12.80;4.68;;;;;;;33.97;34.26;100927.69;5053821;28;20036;-64
2022/06/23 10:47:23;;;;;;;16.58;4.60;;;;;;;33.48;34.63;100940.91;5053688;28;20025;-64
2022/06/23 10:50:19;;;;;;;14.05;4.57;;;;;;;33.77;34.60;100932.09;5053340;28;20433;-64
2022/06/23 10:53:14;;;;;;;12.10;4.72;;;;;;;33.41;35.05;100920.50;5053876;28;20041;-63
2022/06/23 10:56:05;;;;;;;17.50;4.80;;;;;;;33.22;35.50;100920.28;5053632;28;20036;-64
2022/06/23 10:58:41;;;;;;;13.93;4.82;;;;;;;33.38;34.94;100918.88;5053574;28;20025;-63
2022/06/23 11:01:44;;;;;;;12.88;4.97;;;;;;;33.35;35.60;100910.91;5053706;28;20035;-64
2022/06/23 11:04:31;;;;;;;12.23;4.72;;;;;;;33.30;35.65;100909.56;5053085;28;20036;-64
2022/06/23 11:07:18;;;;;;;14.57;4.60;;;;;;;33.72;35.14;100906.94;5052015;28;20106;-63
2022/06/23 11:10:21;;;;;;;15.63;4.60;;;;;;;33.78;35.23;100911.91;5053520;28;20108;-64
2022/06/23 11:12:57;;;;;;;13.85;4.57;;;;;;;33.74;34.29;100910.41;5052992;28;20036;-65
2022/06/23 11:15:26;;;;;;;12.32;4.38;;;;;;;33.79;33.92;100903.56;5053419;28;20071;-63
2022/06/23 11:18:12;;;;;;;10.48;3.97;;;;;;;33.81;34.69;100892.44;5053023;28;20021;-63
2022/06/23 11:21:13;;;;;;;13.05;4.20;;;;;;;33.80;33.45;100899.81;5053798;28;20509;-64
2022/06/23 11:23:50;;;;;;;15.85;4.38;;;;;;;33.65;33.55;100898.38;5057371;28;20067;-64
2022/06/23 11:26:46;;;;;;;14.98;4.35;;;;;;;33.91;34.50;100896.13;5057064;28;20498;-64
2022/06/23 11:29:23;;;;;;;10.73;3.70;;;;;;;33.86;32.32;100899.25;5056796;28;20072;-64
2022/06/23 11:32:15;;;;;;;9.85;3.70;;;;;;;33.34;32.91;100911.91;5057001;28;20091;-64
2022/06/23 11:34:56;;;;;;;11.80;4.20;;;;;;;33.02;33.17;100902.75;5057098;28;20025;-65
2022/06/23 11:37:27;;;;;;;13.75;3.85;;;;;;;32.60;33.62;100897.94;5057184;28;20025;-64
2022/06/23 11:40:10;;;;;;;15.00;4.00;;;;;;;32.59;34.51;100892.56;5057649;28;20083;-65
2022/06/23 11:43:20;;;;;;;12.00;4.13;;;;;;;32.26;34.81;100894.25;5056900;28;20540;-64
2022/06/23 11:46:24;;;;;;;8.50;3.55;;;;;;;32.67;34.28;100903.75;5015152;28;20488;-65
2022/06/23 11:49:14;;;;;;;12.13;3.90;;;;;;;32.48;33.96;100903.50;5014668;28;20088;-64
2022/06/23 11:52:10;;;;;;;12.88;4.00;;;;;;;32.44;34.89;100900.16;5052120;28;20099;-64
2022/06/23 11:54:50;;;;;;;13.88;4.15;;;;;;;32.00;35.26;100885.38;5056799;28;20033;-65
2022/06/23 11:57:38;;;;;;;14.95;4.07;;;;;;;31.80;35.73;100880.56;5056711;28;20063;-65
2022/06/23 12:00:09;;;;;;;10.30;3.70;;;;;;;32.04;36.99;100877.81;5056595;28;20028;-64
2022/06/23 12:02:52;;;;;;;12.65;3.92;;;;;;;32.43;35.55;100876.53;5056914;28;20104;-64
2022/06/23 12:05:38;;;;;;;21.25;4.57;;;;;;;32.84;35.59;100884.09;5056517;28;20029;-65
2022/06/23 12:08:31;;;;;;;15.68;4.50;;;;;;;32.90;35.04;100883.59;5056591;28;20479;-64
2022/06/23 12:10:56;;;;;;;15.38;4.00;;;;;;;32.76;35.01;100880.22;5056469;28;20028;-64
2022/06/23 12:13:26;;;;;;;9.43;3.90;;;;;;;32.77;35.04;100882.88;5056183;28;20051;-64
2022/06/23 12:15:54;;;;;;;11.27;4.13;;;;;;;32.71;34.51;100887.97;5056315;28;20033;-65
2022/06/23 12:18:24;;;;;;;12.25;3.92;;;;;;;32.29;35.15;100876.72;5056221;28;20064;-65
2022/06/23 12:21:14;;;;;;;12.82;4.20;;;;;;;32.61;35.01;100876.91;5056058;28;20467;-65
2022/06/23 12:23:57;;;;;;;11.35;4.20;;;;;;;32.82;34.72;100874.28;5056014;28;20032;-65